Time;durP1;ratioP1;P1;durP2;ratioP2;P2;SDS_P1;SDS_P2;PMS_P1;PMS_P2;Temp;Humidity;BMP_temperature;BMP_pressure;BME280_temperature;BME280_humidity;BME280_pressure;Samples;Min_cycle;Max_cycle;Signal;HPM_P1;HPM_P2
2021/11/01 00:02:24;;;;;;;26.55;3.58;;;9.50;99.90;;;;;;5023213;28;20212;-65
2021/11/01 00:04:49;;;;;;;39.72;4.35;;;9.60;99.90;;;;;;5019990;28;20143;-65
2021/11/01 00:07:15;;;;;;;29.42;3.38;;;9.50;99.90;;;;;;4996912;28;20468;-65
2021/11/01 00:09:41;;;;;;;25.88;3.30;;;9.50;99.90;;;;;;5023544;28;20133;-65
2021/11/01 00:12:07;;;;;;;29.35;3.20;;;9.50;99.90;;;;;;5015639;28;20033;-65
2021/11/01 00:14:33;;;;;;;35.28;3.35;;;9.50;99.90;;;;;;5024486;28;20603;-65
2021/11/01 00:16:59;;;;;;;35.10;3.92;;;9.40;99.90;;;;;;5019582;28;20201;-65
2021/11/01 00:19:26;;;;;;;33.17;4.13;;;9.40;99.90;;;;;;5023330;28;20065;-65
2021/11/01 00:21:52;;;;;;;34.95;3.70;;;9.50;99.90;;;;;;5020508;28;20033;-65
2021/11/01 00:24:19;;;;;;;27.98;3.97;;;9.50;99.90;;;;;;5023513;28;20157;-65
2021/11/01 00:26:45;;;;;;;23.30;3.10;;;9.40;99.90;;;;;;4999618;28;20049;-65
2021/11/01 00:29:10;;;;;;;30.40;3.90;;;9.40;99.90;;;;;;5022714;28;20482;-65
2021/11/01 00:31:36;;;;;;;31.65;3.38;;;9.30;99.90;;;;;;5020336;28;20052;-65
2021/11/01 00:34:02;;;;;;;26.88;4.13;;;9.50;99.90;;;;;;5021444;28;20054;-65
2021/11/01 00:36:28;;;;;;;25.38;3.20;;;9.50;99.90;;;;;;5017155;28;20557;-65
2021/11/01 00:38:53;;;;;;;27.48;3.97;;;9.40;99.90;;;;;;5009311;28;20460;-65
2021/11/01 00:41:19;;;;;;;29.17;3.65;;;9.40;99.90;;;;;;5002532;28;20092;-65
2021/11/01 00:43:45;;;;;;;24.50;2.90;;;9.40;99.90;;;;;;5019752;28;20123;-65
2021/11/01 00:46:11;;;;;;;27.17;3.67;;;9.40;99.90;;;;;;5019296;28;20042;-65
2021/11/01 00:48:37;;;;;;;20.38;3.45;;;9.40;99.90;;;;;;5029440;28;20408;-65
2021/11/01 00:51:03;;;;;;;35.00;3.72;;;9.40;99.90;;;;;;5028862;28;20095;-65
2021/11/01 00:53:31;;;;;;;30.38;3.53;;;9.30;99.90;;;;;;5021018;28;20551;-65
2021/11/01 00:55:59;;;;;;;28.20;3.50;;;9.30;99.90;;;;;;5027298;28;20490;-65
2021/11/01 00:58:26;;;;;;;27.38;3.50;;;9.30;99.90;;;;;;5023672;28;20117;-65
2021/11/01 01:00:52;;;;;;;24.58;3.58;;;9.40;99.90;;;;;;5025338;28;20029;-65
2021/11/01 01:03:19;;;;;;;33.30;3.17;;;9.30;99.90;;;;;;4989993;28;20103;-65
2021/11/01 01:05:46;;;;;;;24.55;2.80;;;9.30;99.90;;;;;;5029056;28;20037;-65
2021/11/01 01:08:13;;;;;;;21.17;2.92;;;9.30;99.90;;;;;;5022646;28;20045;-65
2021/11/01 01:10:40;;;;;;;29.10;3.45;;;9.30;99.90;;;;;;5029187;28;20110;-65
2021/11/01 01:13:06;;;;;;;21.60;3.72;;;9.30;99.90;;;;;;5021221;28;20386;-65
2021/11/01 01:15:42;;;;;;;23.40;3.40;;;9.20;99.90;;;;;;5030794;28;20122;-65
2021/11/01 01:18:14;;;;;;;24.60;3.17;;;9.20;99.90;;;;;;5005868;28;20152;-65
2021/11/01 01:20:40;;;;;;;27.50;3.05;;;9.20;99.90;;;;;;5023008;28;20047;-65
2021/11/01 01:23:06;;;;;;;29.85;3.55;;;9.20;99.90;;;;;;5021687;28;20176;-65
2021/11/01 01:25:45;;;;;;;24.60;3.60;;;9.20;99.90;;;;;;5027322;28;20485;-65
2021/11/01 01:28:12;;;;;;;20.95;2.92;;;9.10;99.90;;;;;;5023323;28;20584;-65
2021/11/01 01:30:39;;;;;;;22.33;2.67;;;9.10;99.90;;;;;;5024101;28;20076;-65
2021/11/01 01:33:10;;;;;;;21.55;2.90;;;9.10;99.90;;;;;;4998232;28;20393;-65
2021/11/01 01:35:37;;;;;;;26.15;2.92;;;9.10;99.90;;;;;;5028596;28;20076;-65
2021/11/01 01:38:03;;;;;;;21.83;2.80;;;9.10;99.90;;;;;;5025334;28;20736;-65
2021/11/01 01:40:29;;;;;;;24.15;3.53;;;9.10;99.90;;;;;;5019760;28;20094;-65
2021/11/01 01:42:55;;;;;;;21.25;2.38;;;9.10;99.90;;;;;;5026851;28;20128;-65
2021/11/01 01:45:21;;;;;;;23.85;3.10;;;9.10;99.90;;;;;;5024246;28;20287;-65
2021/11/01 01:47:47;;;;;;;23.75;2.63;;;9.00;99.90;;;;;;5024046;28;20167;-65
2021/11/01 01:50:14;;;;;;;31.13;3.20;;;9.00;99.90;;;;;;5019380;28;20087;-65
2021/11/01 01:52:41;;;;;;;30.15;3.88;;;9.00;99.90;;;;;;5028206;28;20041;-65
2021/11/01 01:55:09;;;;;;;29.98;3.33;;;9.00;99.90;;;;;;5021110;28;20071;-65
2021/11/01 01:57:36;;;;;;;26.85;2.90;;;8.90;99.90;;;;;;5024982;28;20033;-65
2021/11/01 02:00:06;;;;;;;22.05;2.40;;;9.00;99.90;;;;;;5003294;28;20037;-65
2021/11/01 02:02:32;;;;;;;21.40;2.83;;;8.90;99.90;;;;;;5024801;28;20183;-65
2021/11/01 02:04:58;;;;;;;21.38;3.22;;;9.00;99.90;;;;;;5020338;28;20118;-65
2021/11/01 02:07:32;;;;;;;22.05;3.25;;;9.00;99.90;;;;;;5023573;28;20041;-65
2021/11/01 02:10:14;;;;;;;21.95;2.45;;;8.90;99.90;;;;;;5023394;28;20238;-65
2021/11/01 02:12:46;;;;;;;19.70;3.10;;;9.00;99.90;;;;;;5025096;28;20081;-65
2021/11/01 02:15:18;;;;;;;21.02;2.25;;;8.90;99.90;;;;;;5020854;28;20113;-65
2021/11/01 02:17:46;;;;;;;19.10;2.55;;;8.90;99.90;;;;;;5019638;28;20042;-65
2021/11/01 02:20:38;;;;;;;20.40;2.65;;;8.90;99.90;;;;;;5019732;28;20052;-65
2021/11/01 02:23:18;;;;;;;18.60;2.70;;;8.90;99.90;;;;;;5026571;28;20072;-65
2021/11/01 02:25:47;;;;;;;19.10;2.95;;;8.80;99.90;;;;;;5021622;28;20125;-65
2021/11/01 02:28:23;;;;;;;24.67;3.33;;;8.80;99.90;;;;;;5009747;28;20049;-65
2021/11/01 02:30:51;;;;;;;30.02;3.60;;;8.80;99.90;;;;;;5016906;28;20092;-65
2021/11/01 02:33:17;;;;;;;23.77;3.10;;;8.80;99.90;;;;;;5028451;28;20513;-65
2021/11/01 02:35:43;;;;;;;20.13;2.67;;;8.70;99.90;;;;;;5020973;28;20072;-65
2021/11/01 02:38:14;;;;;;;18.02;2.55;;;8.70;99.90;;;;;;5021617;28;20044;-65
2021/11/01 02:40:40;;;;;;;18.90;3.13;;;8.80;99.90;;;;;;5004784;28;20053;-65
2021/11/01 02:43:06;;;;;;;26.15;3.10;;;8.70;99.90;;;;;;5024530;28;20558;-65
2021/11/01 02:45:34;;;;;;;18.27;2.72;;;8.70;99.90;;;;;;5024084;28;20414;-65
2021/11/01 02:48:00;;;;;;;25.17;3.13;;;8.70;99.90;;;;;;5018705;28;20045;-65
2021/11/01 02:50:27;;;;;;;20.33;2.90;;;8.70;99.90;;;;;;5027156;28;20084;-65
2021/11/01 02:52:53;;;;;;;17.77;2.63;;;8.70;99.90;;;;;;5019203;28;20038;-65
2021/11/01 02:55:20;;;;;;;21.77;2.90;;;8.70;99.90;;;;;;5011023;28;20065;-65
2021/11/01 02:57:47;;;;;;;23.40;2.97;;;8.70;99.90;;;;;;5017645;28;20037;-65
2021/11/01 03:00:17;;;;;;;19.05;3.58;;;8.70;99.90;;;;;;5010267;28;20064;-65
2021/11/01 03:02:43;;;;;;;14.55;2.30;;;8.70;99.90;;;;;;5021635;28;20041;-65
2021/11/01 03:05:12;;;;;;;19.55;3.63;;;8.60;99.90;;;;;;5024357;28;20038;-65
2021/11/01 03:07:40;;;;;;;16.65;2.78;;;8.60;99.90;;;;;;5022759;28;20339;-65
2021/11/01 03:10:07;;;;;;;18.52;2.67;;;8.60;99.90;;;;;;5026954;28;20041;-65
2021/11/01 03:12:33;;;;;;;14.75;3.00;;;8.60;99.90;;;;;;5017003;28;20493;-65
2021/11/01 03:15:02;;;;;;;19.02;2.80;;;8.60;99.90;;;;;;5025004;28;20042;-65
2021/11/01 03:17:33;;;;;;;13.73;2.17;;;8.60;99.90;;;;;;5018385;28;20494;-65
2021/11/01 03:20:11;;;;;;;21.30;2.83;;;8.60;99.90;;;;;;5025451;28;20052;-65
2021/11/01 03:22:42;;;;;;;20.60;2.92;;;8.50;99.90;;;;;;5015729;28;20053;-65
2021/11/01 03:25:23;;;;;;;20.65;3.00;;;8.50;99.90;;;;;;5022064;28;20053;-65
2021/11/01 03:27:52;;;;;;;14.98;2.45;;;8.50;99.90;;;;;;5016526;28;20473;-65
2021/11/01 03:30:20;;;;;;;18.42;2.47;;;8.40;99.90;;;;;;5024896;28;20037;-65
2021/11/01 03:32:48;;;;;;;20.80;2.65;;;8.40;99.90;;;;;;5016217;28;20096;-65
2021/11/01 03:35:15;;;;;;;16.20;2.67;;;8.40;99.90;;;;;;5026529;28;20041;-65
2021/11/01 03:37:42;;;;;;;15.90;2.35;;;8.40;99.90;;;;;;5021401;28;20103;-65
2021/11/01 03:40:11;;;;;;;13.05;2.30;;;8.30;99.90;;;;;;5016607;28;20497;-65
2021/11/01 03:42:37;;;;;;;15.32;2.65;;;8.30;99.90;;;;;;5023820;28;20102;-65
2021/11/01 03:45:07;;;;;;;17.02;2.65;;;8.30;99.90;;;;;;5021627;28;20045;-65
2021/11/01 03:47:38;;;;;;;19.48;2.47;;;8.30;99.90;;;;;;5022967;28;20111;-65
2021/11/01 03:50:15;;;;;;;15.70;2.58;;;8.30;99.90;;;;;;5017232;28;20532;-65
2021/11/01 03:52:42;;;;;;;16.65;2.15;;;8.30;99.90;;;;;;5023149;28;20046;-65
2021/11/01 03:55:08;;;;;;;12.38;2.25;;;8.30;99.90;;;;;;5018255;28;20500;-65
2021/11/01 03:57:34;;;;;;;17.45;2.40;;;8.30;99.90;;;;;;5008622;28;20524;-65
2021/11/01 04:00:01;;;;;;;12.57;1.95;;;8.30;99.90;;;;;;4999493;28;20343;-65
2021/11/01 04:02:26;;;;;;;8.65;1.83;;;8.30;99.90;;;;;;5022133;28;20049;-65
2021/11/01 04:04:53;;;;;;;12.27;1.90;;;8.30;99.90;;;;;;5017665;28;20045;-65
2021/11/01 04:07:20;;;;;;;14.32;2.10;;;8.30;99.90;;;;;;5024101;28;20240;-65
2021/11/01 04:09:46;;;;;;;17.05;2.30;;;8.30;99.90;;;;;;5019697;28;20044;-65
2021/11/01 04:12:13;;;;;;;16.60;2.63;;;8.30;99.90;;;;;;5026034;28;20069;-65
2021/11/01 04:14:43;;;;;;;14.48;2.50;;;8.20;99.90;;;;;;5018875;28;20508;-65
2021/11/01 04:17:22;;;;;;;18.20;2.38;;;8.30;99.90;;;;;;5023789;28;20076;-65
2021/11/01 04:20:08;;;;;;;11.02;2.10;;;8.20;99.90;;;;;;5002617;28;20176;-65
2021/11/01 04:22:36;;;;;;;14.25;2.00;;;8.20;99.90;;;;;;5026020;28;20046;-65
2021/11/01 04:25:02;;;;;;;12.40;1.90;;;8.20;99.90;;;;;;5024399;28;20497;-65
2021/11/01 04:27:27;;;;;;;18.25;2.90;;;8.20;99.90;;;;;;5026809;28;20033;-65
2021/11/01 04:29:53;;;;;;;12.73;2.13;;;8.20;99.90;;;;;;5022573;28;20050;-65
2021/11/01 04:32:28;;;;;;;17.13;2.75;;;8.10;99.90;;;;;;5030737;28;20586;-65
2021/11/01 04:35:15;;;;;;;10.18;1.52;;;8.10;99.90;;;;;;5028616;28;20523;-65
2021/11/01 04:37:43;;;;;;;18.02;2.70;;;8.10;99.90;;;;;;5025417;28;20493;-65
2021/11/01 04:53:54;;;;;;;10.00;1.98;;;8.10;99.90;;;;;;5024822;28;20512;-65
2021/11/01 04:56:24;;;;;;;12.25;2.55;;;8.10;99.90;;;;;;5006529;28;20068;-65
2021/11/01 04:58:51;;;;;;;13.88;2.15;;;8.10;99.90;;;;;;5025290;28;20030;-65
2021/11/01 05:01:26;;;;;;;14.10;2.55;;;8.10;99.90;;;;;;5020652;28;20847;-65
2021/11/01 05:03:55;;;;;;;16.80;2.08;;;8.00;99.90;;;;;;5023578;28;20113;-65
2021/11/01 05:06:25;;;;;;;15.63;2.92;;;8.10;99.90;;;;;;5000129;28;20085;-65
2021/11/01 05:09:17;;;;;;;12.35;1.65;;;8.00;99.90;;;;;;5026972;28;20048;-65
2021/11/01 05:11:47;;;;;;;12.70;1.80;;;8.00;99.90;;;;;;5019739;28;20517;-65
2021/11/01 05:14:15;;;;;;;13.02;2.33;;;8.00;99.90;;;;;;5009493;28;20038;-65
2021/11/01 05:17:03;;;;;;;17.15;2.47;;;8.00;99.90;;;;;;5025695;28;20179;-65
2021/11/01 05:19:32;;;;;;;12.77;2.53;;;8.00;99.90;;;;;;5028609;28;20045;-65
2021/11/01 05:22:15;;;;;;;11.50;1.88;;;8.00;99.90;;;;;;5021920;28;20065;-65
2021/11/01 05:24:45;;;;;;;13.02;2.20;;;8.00;99.90;;;;;;5026877;28;20155;-65
2021/11/01 05:29:48;;;;;;;15.73;2.03;;;7.90;99.90;;;;;;5031310;28;20037;-65
2021/11/01 05:32:18;;;;;;;17.98;2.53;;;8.00;99.90;;;;;;5019959;28;20053;-65
2021/11/01 05:34:44;;;;;;;14.13;1.95;;;7.90;99.90;;;;;;5024686;28;20133;-65
2021/11/01 05:37:10;;;;;;;10.70;1.92;;;8.00;99.90;;;;;;5029538;28;20171;-65
2021/11/01 05:39:38;;;;;;;15.35;2.35;;;7.90;99.90;;;;;;5020476;28;20402;-65
2021/11/01 05:42:05;;;;;;;16.00;2.70;;;8.00;99.90;;;;;;5027428;28;20120;-65
2021/11/01 05:44:30;;;;;;;14.95;2.28;;;7.90;99.90;;;;;;5024932;28;20093;-65
2021/11/01 05:46:56;;;;;;;13.23;2.15;;;7.90;99.90;;;;;;5027324;28;20069;-65
2021/11/01 05:49:23;;;;;;;11.23;1.55;;;7.90;99.90;;;;;;5016887;28;20309;-65
2021/11/01 05:51:51;;;;;;;12.50;1.83;;;7.90;99.90;;;;;;5025099;28;20517;-65
2021/11/01 05:54:20;;;;;;;13.93;1.88;;;7.90;99.90;;;;;;5005921;28;20440;-65
2021/11/01 06:00:04;;;;;;;9.30;1.98;;;7.90;99.90;;;;;;4965713;28;20157;-64
2021/11/01 06:02:38;;;;;;;9.30;2.45;;;7.90;99.90;;;;;;5017783;28;20111;-65
2021/11/01 06:05:12;;;;;;;11.57;2.05;;;7.90;99.90;;;;;;5024094;28;20087;-65
2021/11/01 06:10:13;;;;;;;11.40;2.33;;;7.90;99.90;;;;;;5022074;28;20045;-65
2021/11/01 06:15:27;;;;;;;10.45;1.75;;;7.80;99.90;;;;;;5019666;28;20048;-65
2021/11/01 06:17:54;;;;;;;12.88;1.77;;;7.90;99.90;;;;;;5024219;28;20051;-65
2021/11/01 06:20:20;;;;;;;13.55;2.05;;;7.90;99.90;;;;;;5001821;28;20049;-65
2021/11/01 06:22:46;;;;;;;16.15;2.47;;;7.90;99.90;;;;;;5005613;28;20456;-65
2021/11/01 06:25:15;;;;;;;16.67;2.30;;;7.90;99.90;;;;;;5022328;28;20044;-65
2021/11/01 06:27:41;;;;;;;15.80;2.75;;;7.90;99.90;;;;;;5007245;28;20095;-67
2021/11/01 06:32:58;;;;;;;14.15;2.63;;;7.90;99.90;;;;;;5024970;28;20057;-65
2021/11/01 06:43:33;;;;;;;14.13;2.53;;;8.00;99.90;;;;;;5028343;28;20038;-65
2021/11/01 06:51:26;;;;;;;15.50;2.97;;;7.90;99.90;;;;;;5020303;28;20114;-65
2021/11/01 07:15:40;;;;;;;16.48;2.42;;;8.20;99.90;;;;;;5006771;28;20048;-65
2021/11/01 07:18:15;;;;;;;10.75;2.08;;;8.20;99.90;;;;;;5018772;28;20051;-65
2021/11/01 07:21:14;;;;;;;12.15;3.00;;;8.30;99.90;;;;;;5009247;28;20144;-65
2021/11/01 07:30:11;;;;;;;15.55;3.10;;;8.60;99.90;;;;;;5018267;28;20413;-65
2021/11/01 08:23:47;;;;;;;11.30;1.80;;;10.10;99.90;;;;;;5023019;28;19990;-65
2021/11/01 08:26:33;;;;;;;13.20;2.85;;;10.10;99.90;;;;;;5022440;28;20060;-65
2021/11/01 08:29:53;;;;;;;13.10;2.58;;;10.10;99.90;;;;;;5006007;28;20133;-65
2021/11/01 08:47:31;;;;;;;9.35;2.13;;;10.10;99.90;;;;;;5004988;28;20052;-65
2021/11/01 08:51:03;;;;;;;9.88;2.08;;;10.10;99.90;;;;;;5018841;28;20045;-65
2021/11/01 09:27:08;;;;;;;13.60;2.22;;;11.20;99.90;;;;;;5008878;28;20087;-66
2021/11/01 09:43:00;;;;;;;11.82;2.20;;;11.00;99.90;;;;;;5021659;28;20053;-66
2021/11/01 09:45:27;;;;;;;10.93;1.83;;;11.40;99.90;;;;;;5029706;28;20033;-66
2021/11/01 09:47:53;;;;;;;8.07;1.85;;;11.90;99.90;;;;;;4994572;28;20383;-66
2021/11/01 09:50:23;;;;;;;9.25;1.88;;;12.70;99.90;;;;;;5007685;28;20058;-66
2021/11/01 09:52:56;;;;;;;11.60;1.80;;;13.40;99.90;;;;;;5013961;28;20069;-66
2021/11/01 10:00:50;;;;;;;7.63;1.80;;;14.60;99.90;;;;;;5025844;28;20139;-65
2021/11/01 10:03:17;;;;;;;11.65;1.70;;;14.50;99.90;;;;;;5020006;28;20417;-65
2021/11/01 10:05:55;;;;;;;8.73;1.88;;;14.20;99.90;;;;;;5024041;28;20049;-64
2021/11/01 10:08:22;;;;;;;8.45;1.80;;;13.90;99.90;;;;;;5019354;28;20103;-65
2021/11/01 10:10:47;;;;;;;6.95;1.80;;;13.80;99.90;;;;;;5026778;28;20054;-66
2021/11/01 10:13:16;;;;;;;9.05;1.70;;;14.10;99.90;;;;;;5018082;28;20133;-65
2021/11/01 10:18:27;;;;;;;8.02;1.38;;;14.90;99.90;;;;;;5017882;28;20168;-65
2021/11/01 10:20:58;;;;;;;7.85;1.33;;;15.30;99.90;;;;;;5010906;28;20063;-66
2021/11/01 10:23:26;;;;;;;10.52;2.08;;;15.10;99.90;;;;;;5025218;28;20037;-66
2021/11/01 10:26:04;;;;;;;8.38;1.58;;;14.60;99.90;;;;;;5026281;28;20057;-66
2021/11/01 10:28:31;;;;;;;11.25;1.90;;;14.10;99.90;;;;;;5023404;28;20049;-66
2021/11/01 10:31:10;;;;;;;10.23;1.33;;;13.80;99.90;;;;;;5018714;28;20048;-67
2021/11/01 10:33:47;;;;;;;8.93;1.50;;;13.60;99.90;;;;;;5024810;28;20046;-66
2021/11/01 10:36:24;;;;;;;7.03;1.50;;;13.60;99.90;;;;;;5025473;28;20030;-66
2021/11/01 10:38:59;;;;;;;7.95;1.50;;;14.00;99.90;;;;;;5025350;28;20529;-67
2021/11/01 10:41:33;;;;;;;7.50;1.23;;;14.00;99.90;;;;;;5020633;28;20491;-67
2021/11/01 10:44:11;;;;;;;5.85;1.15;;;14.00;99.90;;;;;;5023912;28;20433;-67
2021/11/01 11:14:20;;;;;;;8.40;0.93;;;12.70;99.90;;;;;;5010318;28;20051;-67
2021/11/01 11:22:26;;;;;;;3.90;0.80;;;12.30;99.90;;;;;;4999932;28;20077;-67
2021/11/01 11:49:12;;;;;;;5.32;0.90;;;12.40;99.90;;;;;;5014833;28;20048;-67
2021/11/01 11:51:54;;;;;;;7.85;1.73;;;12.40;99.90;;;;;;5024926;28;20091;-66
2021/11/01 11:54:30;;;;;;;8.00;1.10;;;12.30;99.90;;;;;;5008509;28;20657;-66
2021/11/01 11:56:57;;;;;;;6.43;0.93;;;12.30;99.90;;;;;;5008159;28;20113;-66
2021/11/01 11:59:33;;;;;;;6.85;1.40;;;12.30;99.90;;;;;;5020644;28;20041;-66
2021/11/01 12:02:07;;;;;;;6.25;1.45;;;12.20;99.90;;;;;;5020456;28;20065;-66
2021/11/01 12:04:39;;;;;;;6.63;0.93;;;12.30;99.90;;;;;;5003657;28;20060;-66
2021/11/01 12:07:06;;;;;;;5.65;1.23;;;12.40;99.90;;;;;;5004407;28;20164;-66
2021/11/01 12:09:45;;;;;;;6.47;1.25;;;12.30;99.90;;;;;;5002558;28;20049;-66
2021/11/01 12:17:20;;;;;;;6.97;1.20;;;12.20;99.90;;;;;;5023338;28;20124;-67
2021/11/01 12:19:47;;;;;;;5.03;0.75;;;12.20;99.90;;;;;;5016970;28;20037;-67
2021/11/01 12:22:25;;;;;;;4.72;0.77;;;12.10;99.90;;;;;;5025717;28;20045;-67
2021/11/01 12:24:52;;;;;;;8.70;2.03;;;12.10;99.90;;;;;;5000847;28;20052;-66
2021/11/01 12:27:18;;;;;;;4.43;0.93;;;12.10;99.90;;;;;;5023349;28;20048;-66
2021/11/01 12:29:44;;;;;;;6.57;1.52;;;12.10;99.90;;;;;;5015812;28;20030;-67
2021/11/01 12:32:14;;;;;;;5.47;1.05;;;12.10;99.90;;;;;;5024466;28;20089;-66
2021/11/01 12:37:30;;;;;;;6.32;0.90;;;12.20;99.90;;;;;;5019433;28;20117;-66
2021/11/01 12:43:23;;;;;;;5.90;1.10;;;12.40;99.90;;;;;;5023248;28;20061;-67
2021/11/01 12:57:18;;;;;;;3.28;0.70;;;12.30;99.90;;;;;;4946389;28;20039;-66
2021/11/01 12:59:47;;;;;;;5.68;0.80;;;12.30;99.90;;;;;;4942949;28;20508;-67
2021/11/01 13:02:27;;;;;;;8.18;1.08;;;12.30;99.90;;;;;;4991296;28;20052;-67
2021/11/01 13:04:56;;;;;;;6.00;1.27;;;12.30;99.90;;;;;;5017880;28;20055;-67
2021/11/01 13:18:29;;;;;;;5.25;0.82;;;12.60;99.90;;;;;;5004419;28;20371;-66
2021/11/01 13:21:02;;;;;;;5.90;0.77;;;12.60;99.90;;;;;;5023334;28;20041;-66
2021/11/01 13:23:34;;;;;;;5.30;0.98;;;12.70;99.90;;;;;;5029454;28;20049;-66
2021/11/01 13:36:38;;;;;;;4.70;0.77;;;12.80;99.90;;;;;;5020505;28;20474;-66
2021/11/01 13:39:06;;;;;;;5.53;1.05;;;12.80;99.90;;;;;;5024226;28;20042;-66
2021/11/01 13:41:32;;;;;;;6.88;0.80;;;12.70;99.90;;;;;;5003990;28;20066;-66
2021/11/01 13:44:09;;;;;;;5.90;0.60;;;12.50;99.90;;;;;;4988096;28;20132;-66
2021/11/01 13:46:43;;;;;;;6.22;0.90;;;12.50;99.90;;;;;;5004292;28;20099;-66
2021/11/01 13:49:08;;;;;;;3.50;0.70;;;12.30;99.90;;;;;;5025135;28;20071;-66
2021/11/01 13:51:34;;;;;;;3.70;0.70;;;12.20;99.90;;;;;;5004733;28;20128;-67
2021/11/01 13:54:09;;;;;;;5.57;0.60;;;12.20;99.90;;;;;;5025868;28;20138;-66
2021/11/01 13:56:57;;;;;;;5.18;0.80;;;12.10;99.90;;;;;;5026777;28;20606;-66
2021/11/01 14:11:09;;;;;;;5.03;0.70;;;11.90;99.90;;;;;;4956818;28;20082;-66
2021/11/01 14:13:50;;;;;;;6.53;0.85;;;11.90;99.90;;;;;;4987795;28;20449;-66
2021/11/01 14:16:21;;;;;;;5.65;1.00;;;11.80;99.90;;;;;;5027125;28;20040;-66
2021/11/01 14:26:59;;;;;;;3.97;0.75;;;11.70;99.90;;;;;;5027482;28;20134;-66
2021/11/01 14:30:01;;;;;;;5.65;0.88;;;11.60;99.90;;;;;;4999726;28;20073;-66
2021/11/01 15:00:20;;;;;;;6.38;1.13;;;11.20;99.90;;;;;;5021516;28;20072;-66
2021/11/01 15:03:02;;;;;;;6.40;0.95;;;11.10;99.90;;;;;;5014090;28;20045;-66
2021/11/01 15:08:20;;;;;;;8.10;0.82;;;11.10;99.90;;;;;;5025087;28;20041;-66
2021/11/01 15:29:23;;;;;;;8.77;1.38;;;10.80;99.90;;;;;;5023965;28;20037;-66
2021/11/01 15:40:14;;;;;;;6.68;1.00;;;10.60;99.90;;;;;;5025403;28;20167;-66
2021/11/01 16:18:11;;;;;;;9.07;1.58;;;10.00;99.90;;;;;;4998551;28;20055;-66
2021/11/01 16:20:37;;;;;;;6.18;1.00;;;10.00;99.90;;;;;;5013905;28;20077;-66
2021/11/01 16:25:35;;;;;;;5.55;1.10;;;9.80;99.90;;;;;;5028222;28;20500;-66
2021/11/01 16:28:00;;;;;;;7.72;1.27;;;9.80;99.90;;;;;;5005893;28;20064;-66
2021/11/01 16:30:31;;;;;;;6.70;0.93;;;9.80;99.90;;;;;;5029008;28;20037;-66
2021/11/01 16:33:03;;;;;;;6.03;1.05;;;9.70;99.90;;;;;;5021100;28;20498;-66
2021/11/01 16:35:39;;;;;;;10.25;1.90;;;9.70;99.90;;;;;;5026420;28;20045;-66
2021/11/01 16:38:20;;;;;;;6.03;0.98;;;9.60;99.90;;;;;;5024180;28;20037;-67
2021/11/01 16:40:46;;;;;;;7.38;1.27;;;9.60;99.90;;;;;;5027632;28;20325;-66
2021/11/01 16:43:15;;;;;;;6.22;1.08;;;9.50;99.90;;;;;;5022003;28;20045;-66
2021/11/01 16:45:43;;;;;;;7.90;1.15;;;9.40;99.90;;;;;;5029564;28;20100;-66
2021/11/01 16:48:10;;;;;;;9.68;1.33;;;9.40;99.90;;;;;;5013033;28;20037;-66
2021/11/01 16:50:36;;;;;;;9.10;1.17;;;9.30;99.90;;;;;;5023330;28;20037;-66
2021/11/01 16:53:02;;;;;;;7.30;1.10;;;9.30;99.90;;;;;;5027260;28;20037;-66
2021/11/01 16:55:34;;;;;;;6.18;1.10;;;9.20;99.90;;;;;;5025410;28;20103;-66
2021/11/01 16:58:11;;;;;;;4.18;0.77;;;9.20;99.90;;;;;;5024795;28;20041;-67
2021/11/01 17:03:17;;;;;;;5.05;1.08;;;9.10;99.90;;;;;;5023683;28;20482;-67
2021/11/01 17:09:10;;;;;;;6.70;1.58;;;9.10;99.90;;;;;;5027609;28;20050;-66
2021/11/01 17:23:10;;;;;;;6.45;1.10;;;8.90;99.90;;;;;;5025339;28;20048;-66
2021/11/01 17:28:41;;;;;;;3.85;1.05;;;8.90;99.90;;;;;;4993024;28;20054;-66
2021/11/01 17:31:26;;;;;;;8.10;1.58;;;9.00;99.90;;;;;;5005748;28;20470;-66
2021/11/01 17:36:52;;;;;;;6.07;1.35;;;9.00;99.90;;;;;;5021119;28;20045;-66
2021/11/01 18:51:35;;;;;;;6.03;1.25;;;9.00;99.90;;;;;;5022073;28;20049;-67
2021/11/01 18:54:21;;;;;;;8.52;2.47;;;9.00;99.90;;;;;;5021141;28;20052;-67
2021/11/01 18:56:48;;;;;;;8.77;3.08;;;9.00;99.90;;;;;;5020632;28;20116;-67
2021/11/01 18:59:16;;;;;;;10.73;3.58;;;9.00;99.90;;;;;;5017355;28;20127;-67
2021/11/01 19:01:49;;;;;;;11.13;3.92;;;8.90;99.90;;;;;;5023322;28;20428;-67
2021/11/01 19:04:26;;;;;;;10.40;4.15;;;8.90;99.90;;;;;;5003585;28;20092;-66
2021/11/01 19:07:00;;;;;;;5.95;1.80;;;8.90;99.90;;;;;;5022506;28;20068;-67
2021/11/01 19:09:40;;;;;;;4.40;1.65;;;8.90;99.90;;;;;;5001781;28;20398;-67
2021/11/01 20:04:57;;;;;;;2.40;0.93;;;8.70;99.90;;;;;;5024128;28;20154;-67
2021/11/01 21:25:51;;;;;;;6.10;2.90;;;7.40;99.90;;;;;;5020102;28;20046;-66
2021/11/01 21:28:17;;;;;;;5.72;2.55;;;7.40;99.90;;;;;;5008292;28;20558;-66
2021/11/01 21:30:43;;;;;;;5.57;2.85;;;7.40;99.90;;;;;;5001494;28;20037;-66
2021/11/01 21:33:13;;;;;;;4.93;2.53;;;7.40;99.90;;;;;;5007797;28;20060;-66
2021/11/01 21:35:46;;;;;;;4.43;2.58;;;7.40;99.90;;;;;;5017388;28;20037;-66
2021/11/01 21:38:13;;;;;;;8.30;2.95;;;7.40;99.90;;;;;;5026450;28;20044;-66
2021/11/01 21:40:42;;;;;;;5.75;2.72;;;7.40;99.90;;;;;;5006474;28;20359;-66
2021/11/01 21:43:08;;;;;;;6.28;2.50;;;7.30;99.90;;;;;;5019883;28;20046;-66
2021/11/01 21:45:34;;;;;;;4.32;2.67;;;7.30;99.90;;;;;;5005237;28;20049;-66
2021/11/01 21:47:59;;;;;;;5.07;2.63;;;7.30;99.90;;;;;;5007213;28;20056;-66
2021/11/01 21:50:25;;;;;;;5.32;3.05;;;7.20;99.90;;;;;;5002361;28;20074;-67
2021/11/01 21:52:53;;;;;;;5.78;2.95;;;7.20;99.90;;;;;;5025523;28;20170;-66
2021/11/01 21:55:21;;;;;;;4.40;2.65;;;7.20;99.90;;;;;;5023516;28;20428;-66
2021/11/01 21:57:58;;;;;;;5.45;2.92;;;7.20;99.90;;;;;;5026470;28;20076;-66
2021/11/01 22:00:43;;;;;;;5.85;3.22;;;7.20;99.90;;;;;;5004680;28;20092;-66
2021/11/01 22:22:41;;;;;;;6.82;3.53;;;6.80;99.90;;;;;;5023088;28;20394;-66
2021/11/01 22:32:54;;;;;;;6.97;3.42;;;6.80;99.90;;;;;;5003274;28;20088;-66
2021/11/01 22:46:41;;;;;;;6.88;4.32;;;6.70;99.90;;;;;;5029798;28;20099;-67
2021/11/01 22:57:08;;;;;;;8.10;3.88;;;6.50;99.90;;;;;;5027150;28;20055;-66
2021/11/01 22:59:33;;;;;;;6.00;3.53;;;6.50;99.90;;;;;;5022868;28;20045;-66
2021/11/01 23:01:59;;;;;;;7.45;4.15;;;6.50;99.90;;;;;;5024404;28;20056;-66
2021/11/01 23:04:40;;;;;;;7.53;4.25;;;6.50;99.90;;;;;;4999086;28;20076;-67
2021/11/01 23:31:49;;;;;;;7.20;5.32;;;6.50;99.90;;;;;;4999468;28;20041;-66
2021/11/01 23:34:16;;;;;;;7.28;4.43;;;6.60;99.90;;;;;;5019577;28;20348;-66
2021/11/01 23:36:43;;;;;;;7.78;4.85;;;6.60;99.90;;;;;;5024319;28;20033;-66
2021/11/01 23:39:12;;;;;;;7.72;4.88;;;6.50;99.90;;;;;;5020208;28;20380;-66
2021/11/01 23:41:40;;;;;;;8.20;5.47;;;6.60;99.90;;;;;;5007853;28;20125;-66
2021/11/01 23:44:06;;;;;;;7.63;4.97;;;6.50;99.90;;;;;;5004514;28;20120;-66
2021/11/01 23:46:34;;;;;;;5.80;4.38;;;6.60;99.90;;;;;;5002608;28;20081;-66
2021/11/01 23:48:59;;;;;;;8.02;4.88;;;6.50;99.90;;;;;;5006974;28;20041;-67
2021/11/01 23:51:35;;;;;;;10.85;5.47;;;6.50;99.90;;;;;;5021798;28;20565;-67
2021/11/01 23:56:49;;;;;;;8.73;5.22;;;6.40;99.90;;;;;;5021009;28;20038;-67
2021/11/01 23:59:16;;;;;;;6.57;5.03;;;6.40;99.90;;;;;;5025003;28;20064;-67
